createdAt,value
2018-04-01T00:00:10.860Z,0
2018-04-01T00:01:11.433Z,0
2018-04-01T00:02:12.004Z,0
2018-04-01T00:03:12.576Z,0
2018-04-01T00:04:13.149Z,0
2018-04-01T00:05:13.720Z,0
2018-04-01T00:06:14.290Z,0
2018-04-01T00:07:14.913Z,0
2018-04-01T00:08:15.679Z,0
2018-04-01T00:09:16.252Z,0
2018-04-01T00:10:16.824Z,0
2018-04-01T00:11:17.446Z,0
2018-04-01T00:12:18.018Z,0
2018-04-01T00:13:18.592Z,0
2018-04-01T00:14:19.164Z,0
2018-04-01T00:15:19.797Z,0
2018-04-01T00:16:20.308Z,0
2018-04-01T00:17:20.880Z,0
2018-04-01T00:18:21.450Z,0
2018-04-01T00:19:22.023Z,0
2018-04-01T00:20:22.597Z,0
2018-04-01T00:21:23.167Z,0
2018-04-01T00:22:23.739Z,0
2018-04-01T00:23:24.359Z,0
2018-04-01T00:24:24.981Z,0
2018-04-01T00:25:25.557Z,0
2018-04-01T00:26:26.127Z,0
2018-04-01T00:27:26.703Z,0
2018-04-01T00:28:27.320Z,0
2018-04-01T00:29:27.900Z,0
2018-04-01T00:30:28.505Z,0
2018-04-01T00:31:29.079Z,0
2018-04-01T00:32:29.651Z,0
2018-04-01T00:33:30.220Z,0
2018-04-01T00:34:30.793Z,0
2018-04-01T00:35:31.366Z,0
2018-04-01T00:36:31.937Z,0
2018-04-01T00:37:32.511Z,0
2018-04-01T00:38:33.133Z,0
2018-04-01T00:39:33.757Z,0
2018-04-01T00:40:34.329Z,0
2018-04-01T00:41:34.902Z,0
2018-04-01T00:42:35.475Z,0
2018-04-01T00:43:36.046Z,0
2018-04-01T00:44:36.669Z,0
2018-04-01T00:45:37.241Z,0
2018-04-01T00:46:37.820Z,0
2018-04-01T00:47:38.388Z,0
2018-04-01T00:48:38.959Z,0
2018-04-01T00:49:39.575Z,0
2018-04-01T00:50:40.147Z,0
2018-04-01T00:51:40.720Z,0
2018-04-01T00:52:41.294Z,0
2018-04-01T00:53:41.865Z,0
2018-04-01T00:54:42.441Z,0
2018-04-01T00:55:43.103Z,0
2018-04-01T00:56:43.725Z,0
2018-04-01T00:57:44.297Z,0
2018-04-01T00:58:44.868Z,0
2018-04-01T00:59:45.439Z,0
2018-04-01T01:00:46.010Z,0
2018-04-01T01:01:46.583Z,0
2018-04-01T01:02:47.154Z,0
2018-04-01T01:03:47.780Z,0
2018-04-01T01:04:48.397Z,0
2018-04-01T01:05:48.969Z,0
2018-04-01T01:06:49.542Z,0
2018-04-01T01:07:50.114Z,0
2018-04-01T01:08:50.685Z,0
2018-04-01T01:09:51.259Z,0
2018-04-01T01:10:51.883Z,0
2018-04-01T01:11:52.654Z,0
2018-04-01T01:12:53.228Z,0
2018-04-01T01:13:53.810Z,0
2018-04-01T01:14:54.373Z,0
2018-04-01T01:15:54.945Z,0
2018-04-01T01:16:55.515Z,0
2018-04-01T01:17:56.100Z,0
2018-04-01T01:18:56.661Z,0
2018-04-01T01:19:57.232Z,0
2018-04-01T01:20:57.805Z,0
2018-04-01T01:21:58.376Z,0
2018-04-01T01:22:58.947Z,0
2018-04-01T01:23:59.519Z,0
2018-04-01T01:25:00.093Z,0
2018-04-01T01:26:00.664Z,0
2018-04-01T01:27:01.235Z,0
2018-04-01T01:28:01.856Z,0
2018-04-01T01:29:02.478Z,0
2018-04-01T01:30:03.100Z,0
2018-04-01T01:31:03.672Z,0
2018-04-01T01:32:04.245Z,0
2018-04-01T01:33:04.816Z,0
2018-04-01T01:34:05.386Z,0
2018-04-01T01:35:05.956Z,0
2018-04-01T01:36:06.528Z,0
2018-04-01T01:37:07.099Z,0
2018-04-01T01:38:07.673Z,0
2018-04-01T01:39:08.245Z,0
2018-04-01T01:40:08.816Z,0
2018-04-01T01:41:09.387Z,0
2018-04-01T01:42:09.961Z,0
2018-04-01T01:43:10.535Z,0
2018-04-01T01:44:11.161Z,0
2018-04-01T01:45:11.776Z,0
2018-04-01T01:46:12.350Z,0
2018-04-01T01:47:12.923Z,0
2018-04-01T01:48:13.494Z,0
2018-04-01T01:49:14.117Z,0
2018-04-01T01:50:14.695Z,0
2018-04-01T01:51:15.303Z,0
2018-04-01T01:52:15.874Z,0
2018-04-01T01:53:16.446Z,0
2018-04-01T01:54:17.017Z,0
2018-04-01T01:55:17.589Z,0
2018-04-01T01:56:18.160Z,0
2018-04-01T01:57:18.733Z,0
2018-04-01T01:58:19.311Z,0
2018-04-01T01:59:19.879Z,0
2018-04-01T02:00:20.449Z,0
2018-04-01T02:01:21.072Z,0
2018-04-01T02:02:21.646Z,0
2018-04-01T02:03:22.217Z,0
2018-04-01T02:04:22.936Z,0
2018-04-01T02:05:23.508Z,0
2018-04-01T02:06:24.158Z,0
2018-04-01T02:07:24.709Z,0
2018-04-01T02:08:25.274Z,0
2018-04-01T02:09:25.847Z,0
2018-04-01T02:10:26.467Z,0
2018-04-01T02:11:27.041Z,0
2018-04-01T02:12:27.614Z,0
2018-04-01T02:13:28.184Z,0
2018-04-01T02:14:28.756Z,0
2018-04-01T02:15:29.327Z,0
2018-04-01T02:16:30.051Z,0
2018-04-01T02:17:30.623Z,0
2018-04-01T02:18:31.195Z,0
2018-04-01T02:19:31.767Z,0
2018-04-01T02:20:32.342Z,0
2018-04-01T02:21:32.962Z,0
2018-04-01T02:22:33.533Z,0
2018-04-01T02:23:34.106Z,0
2018-04-01T02:24:34.735Z,0
2018-04-01T02:25:35.340Z,0
2018-04-01T02:26:35.949Z,0
2018-04-01T02:27:36.520Z,0
2018-04-01T02:28:37.099Z,0
2018-04-01T02:29:37.673Z,0
2018-04-01T02:30:38.247Z,0
2018-04-01T02:31:38.866Z,0
2018-04-01T02:32:39.440Z,0
2018-04-01T02:33:40.012Z,0
2018-04-01T02:34:40.583Z,0
2018-04-01T02:35:41.156Z,0
2018-04-01T02:36:41.727Z,0
2018-04-01T02:37:42.300Z,0
2018-04-01T02:38:42.869Z,0
2018-04-01T02:39:43.589Z,0
2018-04-01T02:40:44.217Z,0
2018-04-01T02:41:44.782Z,0
2018-04-01T02:42:45.361Z,0
2018-04-01T02:43:45.928Z,0
2018-04-01T02:44:46.510Z,0
2018-04-01T02:45:47.070Z,0
2018-04-01T02:46:47.643Z,0
2018-04-01T02:47:48.214Z,0
2018-04-01T02:48:48.786Z,0
2018-04-01T02:49:49.357Z,0
2018-04-01T02:50:49.982Z,0
2018-04-01T02:51:50.554Z,0
2018-04-01T02:52:51.132Z,0
2018-04-01T02:53:51.745Z,0
2018-04-01T02:54:52.316Z,0
2018-04-01T02:55:52.890Z,0
2018-04-01T02:56:53.513Z,0
2018-04-01T02:57:54.085Z,0
2018-04-01T02:58:54.659Z,0
2018-04-01T02:59:55.280Z,0
2018-04-01T03:00:55.852Z,0
2018-04-01T03:01:56.421Z,0
2018-04-01T03:02:56.994Z,0
2018-04-01T03:03:57.566Z,0
2018-04-01T03:04:58.137Z,0
2018-04-01T03:05:58.708Z,0
2018-04-01T03:06:59.282Z,0
2018-04-01T03:07:59.852Z,0
2018-04-01T03:09:00.474Z,0
2018-04-01T03:10:01.045Z,0
2018-04-01T03:11:01.624Z,0
2018-04-01T03:12:02.230Z,0
2018-04-01T03:13:02.801Z,0
2018-04-01T03:14:03.379Z,0
2018-04-01T03:15:04.041Z,0
2018-04-01T03:16:04.613Z,0
2018-04-01T03:17:05.185Z,0
2018-04-01T03:18:05.755Z,0
2018-04-01T03:19:06.378Z,0
2018-04-01T03:20:06.955Z,0
2018-04-01T03:21:07.524Z,0
2018-04-01T03:22:08.101Z,0
2018-04-01T03:23:08.663Z,0
2018-04-01T03:24:09.237Z,0
2018-04-01T03:25:09.807Z,0
2018-04-01T03:26:10.378Z,0
2018-04-01T03:27:10.952Z,0
2018-04-01T03:28:11.566Z,0
2018-04-01T03:29:12.139Z,0
2018-04-01T03:30:12.711Z,0
2018-04-01T03:31:13.284Z,0
2018-04-01T03:32:13.909Z,0
2018-04-01T03:33:14.476Z,0
2018-04-01T03:34:15.048Z,0
2018-04-01T03:35:15.620Z,0
2018-04-01T03:36:16.242Z,0
2018-04-01T03:37:16.860Z,0
2018-04-01T03:38:17.389Z,0
2018-04-01T03:39:17.960Z,0
2018-04-01T03:40:18.532Z,0
2018-04-01T03:41:19.104Z,0
2018-04-01T03:42:19.676Z,0
2018-04-01T03:43:20.249Z,0
2018-04-01T03:44:20.821Z,0
2018-04-01T03:45:21.393Z,0
2018-04-01T03:46:21.964Z,0
2018-04-01T03:47:22.538Z,0
2018-04-01T03:48:23.107Z,0
2018-04-01T03:49:23.730Z,0
2018-04-01T03:50:24.349Z,0
2018-04-01T03:51:24.923Z,0
2018-04-01T03:52:25.493Z,0
2018-04-01T03:53:26.067Z,0
2018-04-01T03:54:26.641Z,0
2018-04-01T03:55:27.260Z,0
2018-04-01T03:56:27.881Z,0
2018-04-01T03:57:28.455Z,0
2018-04-01T03:58:29.064Z,0
2018-04-01T03:59:29.637Z,0
2018-04-01T04:00:30.252Z,0
2018-04-01T04:01:30.778Z,0
2018-04-01T04:02:31.356Z,0
2018-04-01T04:03:31.923Z,0
2018-04-01T04:04:32.494Z,0
2018-04-01T04:05:33.067Z,0
2018-04-01T04:06:33.688Z,0
2018-04-01T04:07:34.261Z,0
2018-04-01T04:08:34.832Z,0
2018-04-01T04:09:35.402Z,0
2018-04-01T04:10:35.974Z,0
2018-04-01T04:11:36.596Z,0
2018-04-01T04:12:37.166Z,0
2018-04-01T04:13:37.743Z,0
2018-04-01T04:14:38.310Z,0
2018-04-01T04:15:38.932Z,0
2018-04-01T04:16:39.504Z,0
2018-04-01T04:17:40.075Z,0
2018-04-01T04:18:40.649Z,0
2018-04-01T04:19:41.217Z,0
2018-04-01T04:20:41.790Z,0
2018-04-01T04:21:42.366Z,0
2018-04-01T04:22:42.937Z,0
2018-04-01T04:23:43.509Z,0
2018-04-01T04:24:44.173Z,0
2018-04-01T04:25:44.744Z,0
2018-04-01T04:26:45.315Z,0
2018-04-01T04:27:45.886Z,0
2018-04-01T04:28:46.509Z,0
2018-04-01T04:29:47.081Z,0
2018-04-01T04:30:47.655Z,0
2018-04-01T04:31:48.226Z,0
2018-04-01T04:32:48.797Z,0
2018-04-01T04:33:49.371Z,0
2018-04-01T04:34:49.943Z,0
2018-04-01T04:35:50.515Z,0
2018-04-01T04:36:51.087Z,0
2018-04-01T04:37:51.658Z,0
2018-04-01T04:38:52.231Z,0
2018-04-01T04:39:52.806Z,0
2018-04-01T04:40:53.424Z,0
2018-04-01T04:41:53.996Z,0
2018-04-01T04:42:54.567Z,0
2018-04-01T04:43:55.141Z,0
2018-04-01T04:44:55.714Z,0
2018-04-01T04:45:56.284Z,0
2018-04-01T04:46:56.907Z,0
2018-04-01T04:47:57.527Z,0
2018-04-01T04:48:58.102Z,0
2018-04-01T04:49:58.671Z,0
2018-04-01T04:50:59.241Z,0
2018-04-01T04:51:59.812Z,0
2018-04-01T04:53:00.385Z,0
2018-04-01T04:54:00.959Z,0
2018-04-01T04:55:01.527Z,0
2018-04-01T04:56:02.099Z,0
2018-04-01T04:57:02.714Z,0
2018-04-01T04:58:03.284Z,0
2018-04-01T04:59:03.904Z,0
2018-04-01T05:00:04.498Z,0
2018-04-01T05:01:05.050Z,0
2018-04-01T05:02:05.623Z,0
2018-04-01T05:03:06.277Z,0
2018-04-01T05:04:06.816Z,0
2018-04-01T05:05:07.392Z,0
2018-04-01T05:06:07.958Z,0
2018-04-01T05:07:08.538Z,0
2018-04-01T05:08:09.101Z,0
2018-04-01T05:09:09.678Z,0
2018-04-01T05:10:10.296Z,0
2018-04-01T05:11:10.867Z,0
2018-04-01T05:12:11.440Z,0
2018-04-01T05:13:12.011Z,0
2018-04-01T05:14:12.587Z,0
2018-04-01T05:15:13.161Z,0
2018-04-01T05:16:13.780Z,0
2018-04-01T05:17:14.354Z,0
2018-04-01T05:18:15.127Z,0
2018-04-01T05:19:15.699Z,0
2018-04-01T05:20:16.270Z,0
2018-04-01T05:21:16.842Z,0
2018-04-01T05:22:17.414Z,0
2018-04-01T05:23:17.987Z,0
2018-04-01T05:24:18.558Z,0
2018-04-01T05:25:19.134Z,0
2018-04-01T05:26:19.702Z,0
2018-04-01T05:27:20.273Z,0
2018-04-01T05:28:20.901Z,0
2018-04-01T05:29:21.469Z,0
2018-04-01T05:30:22.149Z,0
2018-04-01T05:31:22.810Z,0
2018-04-01T05:32:23.384Z,0
2018-04-01T05:33:23.954Z,0
2018-04-01T05:34:24.526Z,0
2018-04-01T05:35:25.246Z,0
2018-04-01T05:36:25.818Z,0
2018-04-01T05:37:26.390Z,0
2018-04-01T05:38:26.961Z,0
2018-04-01T05:39:27.531Z,0
2018-04-01T05:40:28.105Z,0
2018-04-01T05:41:28.679Z,0
2018-04-01T05:42:29.250Z,0
2018-04-01T05:43:29.822Z,0
2018-04-01T05:44:30.394Z,0
2018-04-01T05:45:30.966Z,0
2018-04-01T05:46:31.587Z,0
2018-04-01T05:47:32.156Z,0
2018-04-01T05:48:32.778Z,0
2018-04-01T05:49:33.354Z,0
2018-04-01T05:50:33.982Z,0
2018-04-01T05:51:34.554Z,0
2018-04-01T05:52:35.119Z,0
2018-04-01T05:53:35.689Z,0
2018-04-01T05:54:36.261Z,0
2018-04-01T05:55:36.831Z,0
2018-04-01T05:56:37.404Z,0
2018-04-01T05:57:37.974Z,0
2018-04-01T05:58:38.546Z,0
2018-04-01T05:59:39.119Z,0
2018-04-01T06:00:39.689Z,0
2018-04-01T06:01:40.261Z,0
2018-04-01T06:02:40.885Z,0
2018-04-01T06:03:41.454Z,0
2018-04-01T06:04:42.027Z,0
2018-04-01T06:05:42.600Z,0
2018-04-01T06:06:43.221Z,0
2018-04-01T06:07:43.792Z,0
2018-04-01T06:08:44.362Z,0
2018-04-01T06:09:44.986Z,0
2018-04-01T06:10:45.557Z,0
2018-04-01T06:11:46.130Z,0
2018-04-01T06:12:46.700Z,0
2018-04-01T06:13:47.269Z,0
2018-04-01T06:14:47.842Z,0
2018-04-01T06:15:48.415Z,0
2018-04-01T06:16:48.993Z,0
2018-04-01T06:17:49.615Z,0
2018-04-01T06:18:50.178Z,0
2018-04-01T06:19:50.751Z,0
2018-04-01T06:20:51.322Z,0
2018-04-01T06:21:51.892Z,0
2018-04-01T06:22:52.465Z,0
2018-04-01T06:23:53.038Z,0
2018-04-01T06:24:53.659Z,0
2018-04-01T06:25:54.231Z,0
2018-04-01T06:26:54.800Z,0
2018-04-01T06:27:55.409Z,0
2018-04-01T06:28:55.946Z,0
2018-04-01T06:29:56.514Z,0
2018-04-01T06:30:57.088Z,0
2018-04-01T06:31:57.709Z,0
2018-04-01T06:32:58.283Z,0
2018-04-01T06:33:58.938Z,0
2018-04-01T06:34:59.466Z,0
2018-04-01T06:36:00.038Z,0
2018-04-01T06:37:00.610Z,0
2018-04-01T06:38:01.181Z,0
2018-04-01T06:39:01.756Z,0
2018-04-01T06:40:02.433Z,0
2018-04-01T06:41:02.941Z,0
2018-04-01T06:42:03.508Z,0
2018-04-01T06:43:04.080Z,0
2018-04-01T06:44:04.703Z,0
2018-04-01T06:45:05.274Z,0
2018-04-01T06:46:05.848Z,0
2018-04-01T06:47:06.469Z,0
2018-04-01T06:48:07.040Z,0
2018-04-01T06:49:07.612Z,0
2018-04-01T06:50:08.233Z,0
2018-04-01T06:51:13.859Z,0
2018-04-01T06:52:14.481Z,0
2018-04-01T06:53:15.054Z,0
2018-04-01T06:54:15.626Z,0
2018-04-01T06:55:16.196Z,0
2018-04-01T06:56:16.764Z,0
2018-04-01T06:57:17.339Z,0
2018-04-01T06:58:17.910Z,0
2018-04-01T06:59:18.481Z,0
2018-04-01T07:00:19.054Z,0
2018-04-01T07:01:19.695Z,0
2018-04-01T07:02:20.249Z,0
2018-04-01T07:03:20.862Z,0
2018-04-01T07:04:21.483Z,0
2018-04-01T07:05:22.109Z,0
2018-04-01T07:06:22.676Z,0
2018-04-01T07:07:23.246Z,0
2018-04-01T07:08:23.818Z,0
2018-04-01T07:09:24.388Z,0
2018-04-01T07:10:24.960Z,0
2018-04-01T07:11:25.529Z,0
2018-04-01T07:12:26.103Z,0
2018-04-01T07:13:26.675Z,0
2018-04-01T07:14:27.245Z,0
2018-04-01T07:15:27.818Z,0
2018-04-01T07:16:28.443Z,0
2018-04-01T07:17:29.099Z,0
2018-04-01T07:18:29.629Z,0
2018-04-01T07:19:30.251Z,0
2018-04-01T07:20:30.821Z,0
2018-04-01T07:21:31.442Z,0
2018-04-01T07:22:32.013Z,0
2018-04-01T07:23:32.586Z,0
2018-04-01T07:24:33.157Z,0
2018-04-01T07:25:33.777Z,0
2018-04-01T07:26:34.398Z,0
2018-04-01T07:27:34.970Z,0
2018-04-01T07:28:35.540Z,0
2018-04-01T07:29:36.112Z,0
2018-04-01T07:30:36.683Z,0
2018-04-01T07:31:37.254Z,0
2018-04-01T07:32:37.826Z,0
2018-04-01T07:33:38.399Z,0
2018-04-01T07:34:38.969Z,0
2018-04-01T07:35:39.541Z,0
2018-04-01T07:36:40.115Z,0
2018-04-01T07:37:40.780Z,0
2018-04-01T07:38:41.353Z,0
2018-04-01T07:39:41.926Z,0
2018-04-01T07:40:42.497Z,0
2018-04-01T07:41:43.067Z,0
2018-04-01T07:42:43.690Z,0
2018-04-01T07:43:44.261Z,0
2018-04-01T07:44:44.834Z,0
2018-04-01T07:45:45.404Z,0
2018-04-01T07:46:46.026Z,0
2018-04-01T07:47:46.603Z,0
2018-04-01T07:48:47.166Z,0
2018-04-01T07:49:47.737Z,0
2018-04-01T07:50:48.357Z,0
2018-04-01T07:51:48.927Z,0
2018-04-01T07:52:49.499Z,0
2018-04-01T07:53:50.120Z,0
2018-04-01T07:54:50.694Z,0
2018-04-01T07:55:51.314Z,0
2018-04-01T07:56:51.884Z,0
2018-04-01T07:57:52.456Z,0
2018-04-01T07:58:53.028Z,0
2018-04-01T07:59:53.650Z,0
2018-04-01T08:00:54.222Z,0
2018-04-01T08:01:54.842Z,0
2018-04-01T08:02:55.415Z,0
2018-04-01T08:03:55.987Z,0
2018-04-01T08:04:56.560Z,0
2018-04-01T08:05:57.138Z,0
2018-04-01T08:06:57.707Z,0
2018-04-01T08:07:58.277Z,0
2018-04-01T08:08:58.848Z,0
2018-04-01T08:09:59.470Z,0
2018-04-01T08:11:00.042Z,0
2018-04-01T08:12:00.666Z,0
2018-04-01T08:13:01.238Z,0
2018-04-01T08:14:01.809Z,0
2018-04-01T08:15:02.380Z,0
2018-04-01T08:16:02.950Z,0
2018-04-01T08:17:03.573Z,0
2018-04-01T08:18:04.197Z,0
2018-04-01T08:19:04.769Z,0
2018-04-01T08:20:05.341Z,0
2018-04-01T08:21:05.912Z,0
2018-04-01T08:22:06.481Z,0
2018-04-01T08:23:07.053Z,0
2018-04-01T08:24:07.625Z,0
2018-04-01T08:25:08.194Z,0
2018-04-01T08:26:08.764Z,0
2018-04-01T08:27:09.336Z,0
2018-04-01T08:28:09.906Z,0
2018-04-01T08:29:10.476Z,0
2018-04-01T08:30:11.050Z,0
2018-04-01T08:31:11.671Z,0
2018-04-01T08:32:12.242Z,0
2018-04-01T08:33:12.815Z,0
2018-04-01T08:34:13.401Z,0
2018-04-01T08:35:13.958Z,0
2018-04-01T08:36:14.527Z,0
2018-04-01T08:37:15.151Z,0
2018-04-01T08:38:15.762Z,0
2018-04-01T08:39:16.483Z,4
2018-04-01T08:40:17.055Z,4
2018-04-01T08:41:17.627Z,4
2018-04-01T08:42:18.200Z,4
2018-04-01T08:43:18.772Z,4
2018-04-01T08:44:19.345Z,4
2018-04-01T08:45:19.923Z,4
2018-04-01T08:46:20.489Z,4
2018-04-01T08:47:21.060Z,4
2018-04-01T08:48:21.636Z,4
2018-04-01T08:49:22.255Z,4
2018-04-01T08:50:22.826Z,4
2018-04-01T08:51:23.399Z,4
2018-04-01T08:52:24.015Z,4
2018-04-01T08:53:24.581Z,4
2018-04-01T08:54:25.151Z,4
2018-04-01T08:55:25.725Z,4
2018-04-01T08:56:26.347Z,4
2018-04-01T08:57:26.970Z,4
2018-04-01T08:58:27.540Z,4
2018-04-01T08:59:28.182Z,4
2018-04-01T09:00:28.685Z,4
2018-04-01T09:01:29.256Z,4
2018-04-01T09:02:29.829Z,0
2018-04-01T09:03:30.399Z,4
2018-04-01T09:04:30.970Z,0
2018-04-01T09:05:31.543Z,12
2018-04-01T09:06:32.114Z,12
2018-04-01T09:07:32.687Z,12
2018-04-01T09:08:33.309Z,12
2018-04-01T09:09:33.882Z,12
2018-04-01T09:10:34.492Z,12
2018-04-01T09:11:35.064Z,8
2018-04-01T09:12:35.686Z,12
2018-04-01T09:13:36.258Z,12
2018-04-01T09:14:36.828Z,8
2018-04-01T09:15:37.406Z,12
2018-04-01T09:16:37.976Z,12
2018-04-01T09:17:38.598Z,8
2018-04-01T09:18:39.171Z,8
2018-04-01T09:19:39.750Z,12
2018-04-01T09:20:40.316Z,8
2018-04-01T09:21:40.939Z,8
2018-04-01T09:22:41.512Z,8
2018-04-01T09:23:42.085Z,8
2018-04-01T09:24:42.656Z,8
2018-04-01T09:25:43.226Z,8
2018-04-01T09:26:43.848Z,8
2018-04-01T09:27:44.469Z,8
2018-04-01T09:28:45.043Z,12
2018-04-01T09:29:45.619Z,12
2018-04-01T09:30:46.189Z,12
2018-04-01T09:31:46.760Z,8
2018-04-01T09:32:47.334Z,316
2018-04-01T09:33:47.910Z,2852
2018-04-01T09:34:48.488Z,2780
2018-04-01T09:35:49.064Z,2656
2018-04-01T09:36:49.768Z,2612
2018-04-01T09:37:50.266Z,2840
2018-04-01T09:38:50.896Z,3240
2018-04-01T09:39:51.420Z,3888
2018-04-01T09:40:51.998Z,3300
2018-04-01T09:41:52.573Z,3072
2018-04-01T09:42:53.202Z,2860
2018-04-01T09:43:53.779Z,2788
2018-04-01T09:44:54.356Z,3148
2018-04-01T09:45:54.933Z,3584
2018-04-01T09:46:55.510Z,3436
2018-04-01T09:47:56.137Z,3596
2018-04-01T09:48:56.714Z,3524
2018-04-01T09:49:57.318Z,3824
2018-04-01T09:50:57.869Z,3916
2018-04-01T09:51:58.448Z,3988
2018-04-01T09:52:59.024Z,3748
2018-04-01T09:53:59.601Z,3596
2018-04-01T09:55:00.179Z,3520
2018-04-01T09:56:00.755Z,3560
2018-04-01T09:57:01.336Z,3684
2018-04-01T09:58:01.964Z,3684
2018-04-01T09:59:02.590Z,3732
2018-04-01T10:00:08.222Z,3600
2018-04-01T10:01:08.801Z,3424
2018-04-01T10:02:09.380Z,3596
2018-04-01T10:03:09.959Z,3608
2018-04-01T10:04:10.537Z,3600
2018-04-01T10:05:11.165Z,3244
2018-04-01T10:06:11.792Z,3484
2018-04-01T10:07:12.368Z,3356
2018-04-01T10:08:12.946Z,3284
2018-04-01T10:09:13.570Z,3072
2018-04-01T10:10:14.101Z,3072
2018-04-01T10:11:14.679Z,2932
2018-04-01T10:12:15.256Z,2920
2018-04-01T10:13:15.835Z,2908
2018-04-01T10:14:16.411Z,3100
2018-04-01T10:15:16.996Z,3212
2018-04-01T10:16:17.567Z,3468
2018-04-01T10:17:18.147Z,3512
2018-04-01T10:18:18.730Z,3532
2018-04-01T10:19:19.316Z,3560
2018-04-01T10:20:19.887Z,3696
2018-04-01T10:21:20.516Z,3868
2018-04-01T10:22:21.093Z,4312
2018-04-01T10:23:21.673Z,5152
2018-04-01T10:24:22.251Z,5576
2018-04-01T10:25:22.880Z,5124
2018-04-01T10:26:23.510Z,4560
2018-04-01T10:27:24.089Z,4976
2018-04-01T10:28:24.669Z,4872
2018-04-01T10:29:25.267Z,5048
2018-04-01T10:30:25.828Z,4264
2018-04-01T10:31:26.407Z,3628
2018-04-01T10:32:26.988Z,4160
2018-04-01T10:33:27.565Z,4848
2018-04-01T10:34:28.144Z,4864
2018-04-01T10:35:28.721Z,5152
2018-04-01T10:36:29.300Z,5680
2018-04-01T10:37:29.878Z,5816
2018-04-01T10:38:30.510Z,5392
2018-04-01T10:39:31.136Z,5348
2018-04-01T10:40:31.766Z,5980
2018-04-01T10:41:32.345Z,6580
2018-04-01T10:42:32.924Z,6896
2018-04-01T10:43:33.506Z,10400
2018-04-01T10:44:34.136Z,10640
2018-04-01T10:45:34.715Z,12436
2018-04-01T10:46:35.294Z,13860
2018-04-01T10:47:35.875Z,13560
2018-04-01T10:48:36.455Z,13512
2018-04-01T10:49:37.035Z,10480
2018-04-01T10:50:37.616Z,14104
2018-04-01T10:51:38.198Z,14800
2018-04-01T10:52:38.778Z,15448
2018-04-01T10:53:39.361Z,13708
2018-04-01T10:54:39.946Z,14656
2018-04-01T10:55:40.581Z,15480
2018-04-01T10:56:41.202Z,9640
2018-04-01T10:57:41.780Z,7460
2018-04-01T10:58:42.367Z,6548
2018-04-01T10:59:42.992Z,7872
2018-04-01T11:00:43.573Z,8992
2018-04-01T11:01:44.204Z,8692
2018-04-01T11:02:44.837Z,19744
2018-04-01T11:03:45.417Z,22560
2018-04-01T11:04:45.998Z,8072
2018-04-01T11:05:46.580Z,9636
2018-04-01T11:06:47.162Z,15536
2018-04-01T11:07:47.796Z,15000
2018-04-01T11:08:48.418Z,25664
2018-04-01T11:09:49.050Z,12948
2018-04-01T11:10:49.684Z,11752
2018-04-01T11:11:50.265Z,24224
2018-04-01T11:12:50.847Z,24288
2018-04-01T11:13:51.429Z,19776
2018-04-01T11:14:52.062Z,32160
2018-04-01T11:15:52.653Z,16064
2018-04-01T11:16:53.291Z,44288
2018-04-01T11:17:54.032Z,40224
2018-04-01T11:18:54.621Z,29312
2018-04-01T11:19:55.215Z,22784
2018-04-01T11:20:55.804Z,47584
2018-04-01T11:21:56.393Z,49952
2018-04-01T11:22:56.983Z,52800
2018-04-01T11:23:57.573Z,56448
2018-04-01T11:24:58.166Z,51264
2018-04-01T11:25:58.761Z,58496
2018-04-01T11:26:59.345Z,49568
2018-04-01T11:30:33.822Z,16784
2018-04-01T11:31:34.603Z,39520
2018-04-01T11:32:35.236Z,48576
2018-04-01T11:33:35.820Z,28576
2018-04-01T11:34:36.454Z,36352
2018-04-01T11:35:37.038Z,45280
2018-04-01T11:36:37.624Z,51872
2018-04-01T11:37:38.218Z,43584
2018-04-01T11:38:56.737Z,55712
2018-04-01T11:39:57.275Z,53312
2018-04-01T11:40:57.866Z,53696
2018-04-01T11:41:58.447Z,46752
2018-04-01T11:42:59.035Z,49696
2018-04-01T11:43:59.618Z,49824
2018-04-01T11:45:00.254Z,54880
2018-04-01T11:46:00.841Z,53280
2018-04-01T11:47:01.430Z,56544
2018-04-01T11:48:02.018Z,58848
2018-04-01T11:49:02.808Z,55328
2018-04-01T11:50:21.166Z,43328
2018-04-01T11:51:21.759Z,60000
2018-04-01T11:52:22.350Z,59424
2018-04-01T11:53:22.948Z,41728
2018-04-01T11:54:23.592Z,44192
2018-04-01T11:55:24.187Z,52960
2018-04-01T11:56:24.833Z,52992
2018-04-01T11:57:25.429Z,55456
2018-04-01T11:58:26.075Z,36512
2018-04-01T11:59:26.671Z,23904
2018-04-01T12:00:27.267Z,15164
2018-04-01T12:01:27.871Z,22624
2018-04-01T12:02:28.456Z,17748
2018-04-01T12:03:29.050Z,46080
2018-04-01T12:04:29.643Z,26912
2018-04-01T12:05:30.239Z,54720
2018-04-01T12:06:30.883Z,54720
2018-04-01T12:07:31.478Z,20992
2018-04-01T12:08:32.068Z,7372
2018-04-01T12:09:32.712Z,48224
2018-04-01T12:10:33.305Z,62336
2018-04-01T12:11:33.903Z,57856
2018-04-01T12:12:34.496Z,25920
2018-04-01T12:13:35.089Z,39296
2018-04-01T12:14:35.683Z,35936
2018-04-01T12:15:36.327Z,31776
2018-04-01T12:16:36.923Z,36192
2018-04-01T12:17:37.567Z,20896
2018-04-01T12:18:38.162Z,28544
2018-04-01T12:19:38.762Z,25088
2018-04-01T12:20:39.400Z,10592
2018-04-01T12:21:39.997Z,24640
2018-04-01T12:22:40.590Z,27424
2018-04-01T12:23:41.185Z,23712
2018-04-01T12:24:41.784Z,28992
2018-04-01T12:25:42.377Z,18912
2018-04-01T12:26:42.972Z,14332
2018-04-01T12:27:43.567Z,28896
2018-04-01T12:28:44.164Z,30208
2018-04-01T12:29:44.807Z,24224
2018-04-01T12:30:45.402Z,29600
2018-04-01T12:31:46.048Z,29440
2018-04-01T12:32:46.642Z,29984
2018-04-01T12:33:47.244Z,29472
2018-04-01T12:34:47.927Z,28608
2018-04-01T12:35:48.529Z,28960
2018-04-01T12:36:49.119Z,28768
2018-04-01T12:37:49.766Z,28480
2018-04-01T12:39:08.127Z,28256
2018-04-01T12:40:08.734Z,28544
2018-04-01T12:41:09.349Z,28768
2018-04-01T12:42:09.939Z,29024
2018-04-01T12:44:12.119Z,29504
2018-04-01T12:45:12.711Z,29184
2018-04-01T12:46:13.352Z,31424
2018-04-01T12:47:13.943Z,35584
2018-04-01T12:48:14.537Z,31008
2018-04-01T12:49:15.128Z,36864
2018-04-01T12:50:15.728Z,54816
2018-04-01T12:51:16.329Z,67008
2018-04-01T12:53:18.565Z,67712
2018-04-01T12:54:19.212Z,65312
2018-04-01T12:55:19.811Z,34368
2018-04-01T12:56:20.428Z,49504
2018-04-01T12:57:21.008Z,81568
2018-04-01T12:58:21.648Z,76128
2018-04-01T12:59:22.248Z,66432
2018-04-01T13:00:22.844Z,67744
2018-04-01T13:01:23.492Z,49696
2018-04-01T13:02:24.095Z,74816
2018-04-01T13:03:24.739Z,66592
2018-04-01T13:04:25.337Z,45472
2018-04-01T13:05:25.986Z,73984
2018-04-01T13:06:26.585Z,80160
2018-04-01T13:07:27.181Z,28576
2018-04-01T13:08:27.781Z,61152
2018-04-01T13:09:28.378Z,54720
2018-04-01T13:10:29.176Z,13976
2018-04-01T13:11:29.774Z,79712
2018-04-01T13:12:30.375Z,77088
2018-04-01T13:13:31.021Z,27392
2018-04-01T13:14:31.620Z,25184
2018-04-01T13:15:32.219Z,73728
2018-04-01T13:16:32.867Z,74016
2018-04-01T13:17:33.466Z,73664
2018-04-01T13:18:34.063Z,70752
2018-04-01T13:19:34.663Z,69792
2018-04-01T13:20:35.262Z,73024
2018-04-01T13:21:35.901Z,65280
2018-04-01T13:22:36.501Z,40832
2018-04-01T13:23:37.148Z,66592
2018-04-01T13:24:37.748Z,74048
2018-04-01T13:25:38.346Z,65920
2018-04-01T13:26:38.943Z,35264
2018-04-01T13:27:39.543Z,62880
2018-04-01T13:28:40.139Z,25216
2018-04-01T13:29:40.785Z,31008
2018-04-01T13:30:41.432Z,20384
2018-04-01T13:31:42.034Z,70784
2018-04-01T13:32:42.630Z,63200
2018-04-01T13:33:43.228Z,66944
2018-04-01T13:34:43.978Z,66144
2018-04-01T13:35:44.576Z,64352
2018-04-01T13:36:45.177Z,57984
2018-04-01T13:37:45.777Z,43456
2018-04-01T13:38:46.373Z,33440
2018-04-01T13:39:46.973Z,31456
2018-04-01T13:40:47.573Z,30848
2018-04-01T13:41:48.180Z,25632
2018-04-01T13:42:48.772Z,32288
2018-04-01T13:43:49.369Z,31264
2018-04-01T13:44:50.027Z,30848
2018-04-01T13:45:50.620Z,30880
2018-04-01T13:46:51.221Z,30976
2018-04-01T13:47:51.824Z,32032
2018-04-01T13:48:52.572Z,37792
2018-04-01T13:49:53.173Z,46336
2018-04-01T13:50:53.773Z,50816
2018-04-01T13:51:54.374Z,54240
2018-04-01T13:52:55.025Z,56672
2018-04-01T13:53:55.623Z,50624
2018-04-01T13:54:56.222Z,46560
2018-04-01T13:55:56.824Z,42336
2018-04-01T13:56:57.423Z,33920
2018-04-01T13:57:58.025Z,34720
2018-04-01T13:58:58.624Z,29664
2018-04-01T13:59:59.225Z,27968
2018-04-01T14:00:59.884Z,27648
2018-04-01T14:02:00.516Z,27872
2018-04-01T14:03:01.114Z,26688
2018-04-01T14:04:01.764Z,23904
2018-04-01T14:05:02.364Z,20416
2018-04-01T14:06:02.962Z,20608
2018-04-01T14:07:03.560Z,20640
2018-04-01T14:08:04.161Z,17592
2018-04-01T14:09:04.807Z,13112
2018-04-01T14:10:05.404Z,18016
2018-04-01T14:11:06.003Z,17208
2018-04-01T14:12:06.603Z,17316
2018-04-01T14:13:07.203Z,17428
2018-04-01T14:14:07.797Z,18816
2018-04-01T14:15:08.396Z,14596
2018-04-01T14:16:09.047Z,18656
2018-04-01T14:17:09.685Z,15980
2018-04-01T14:18:10.285Z,13296
2018-04-01T14:19:10.930Z,12912
2018-04-01T14:20:11.527Z,16424
2018-04-01T14:21:12.125Z,20000